sensor_id;sensor_type;location;lat;lon;timestamp;P1;durP1;ratioP1;P2;durP2;ratioP2
22034;SDS011;11181;51.002;4.356;2024-02-16T00:01:50;1.90;;;1.70;;
22034;SDS011;11181;51.002;4.356;2024-02-16T00:04:17;3.47;;;2.00;;
22034;SDS011;11181;51.002;4.356;2024-02-16T00:06:44;1.90;;;1.67;;
22034;SDS011;11181;51.002;4.356;2024-02-16T00:09:11;3.70;;;1.93;;
22034;SDS011;11181;51.002;4.356;2024-02-16T00:11:38;3.23;;;1.90;;
22034;SDS011;11181;51.002;4.356;2024-02-16T00:14:05;1.43;;;1.33;;
22034;SDS011;11181;51.002;4.356;2024-02-16T00:16:32;3.27;;;2.10;;
22034;SDS011;11181;51.002;4.356;2024-02-16T00:19:00;2.97;;;1.77;;
22034;SDS011;11181;51.002;4.356;2024-02-16T00:21:27;2.57;;;1.80;;
22034;SDS011;11181;51.002;4.356;2024-02-16T00:23:54;3.73;;;1.90;;
22034;SDS011;11181;51.002;4.356;2024-02-16T00:26:21;2.60;;;1.90;;
22034;SDS011;11181;51.002;4.356;2024-02-16T00:28:48;2.43;;;1.60;;
22034;SDS011;11181;51.002;4.356;2024-02-16T00:31:15;2.60;;;1.70;;
22034;SDS011;11181;51.002;4.356;2024-02-16T00:33:42;2.10;;;1.63;;
22034;SDS011;11181;51.002;4.356;2024-02-16T00:36:10;2.33;;;1.67;;
22034;SDS011;11181;51.002;4.356;2024-02-16T00:38:37;2.57;;;1.60;;
22034;SDS011;11181;51.002;4.356;2024-02-16T00:41:04;5.77;;;2.40;;
22034;SDS011;11181;51.002;4.356;2024-02-16T00:43:32;3.40;;;1.60;;
22034;SDS011;11181;51.002;4.356;2024-02-16T00:45:59;3.00;;;2.40;;
22034;SDS011;11181;51.002;4.356;2024-02-16T00:48:26;2.00;;;1.63;;
22034;SDS011;11181;51.002;4.356;2024-02-16T00:50:52;2.33;;;2.10;;
22034;SDS011;11181;51.002;4.356;2024-02-16T00:53:21;2.57;;;1.77;;
22034;SDS011;11181;51.002;4.356;2024-02-16T00:55:47;2.10;;;1.87;;
22034;SDS011;11181;51.002;4.356;2024-02-16T00:58:14;2.80;;;1.53;;
22034;SDS011;11181;51.002;4.356;2024-02-16T01:00:41;2.87;;;1.77;;
22034;SDS011;11181;51.002;4.356;2024-02-16T01:03:09;3.13;;;2.00;;
22034;SDS011;11181;51.002;4.356;2024-02-16T01:05:39;2.63;;;1.97;;
22034;SDS011;11181;51.002;4.356;2024-02-16T01:08:06;2.97;;;1.77;;
22034;SDS011;11181;51.002;4.356;2024-02-16T01:10:34;2.80;;;2.13;;
22034;SDS011;11181;51.002;4.356;2024-02-16T01:13:01;4.43;;;2.33;;
22034;SDS011;11181;51.002;4.356;2024-02-16T01:15:28;3.07;;;1.70;;
22034;SDS011;11181;51.002;4.356;2024-02-16T01:17:55;2.77;;;1.87;;
22034;SDS011;11181;51.002;4.356;2024-02-16T01:20:25;2.07;;;1.63;;
22034;SDS011;11181;51.002;4.356;2024-02-16T01:22:56;4.27;;;1.97;;
22034;SDS011;11181;51.002;4.356;2024-02-16T01:25:23;3.40;;;1.83;;
22034;SDS011;11181;51.002;4.356;2024-02-16T01:27:51;3.03;;;1.80;;
22034;SDS011;11181;51.002;4.356;2024-02-16T01:30:18;2.33;;;1.80;;
22034;SDS011;11181;51.002;4.356;2024-02-16T01:32:45;2.63;;;1.60;;
22034;SDS011;11181;51.002;4.356;2024-02-16T01:35:12;2.17;;;1.80;;
22034;SDS011;11181;51.002;4.356;2024-02-16T01:37:40;4.27;;;2.10;;
22034;SDS011;11181;51.002;4.356;2024-02-16T01:40:07;2.43;;;1.63;;
22034;SDS011;11181;51.002;4.356;2024-02-16T01:42:38;2.20;;;1.60;;
22034;SDS011;11181;51.002;4.356;2024-02-16T01:45:07;3.37;;;1.90;;
22034;SDS011;11181;51.002;4.356;2024-02-16T01:47:35;4.17;;;1.70;;
22034;SDS011;11181;51.002;4.356;2024-02-16T01:50:02;3.17;;;2.20;;
22034;SDS011;11181;51.002;4.356;2024-02-16T01:52:30;2.40;;;1.80;;
22034;SDS011;11181;51.002;4.356;2024-02-16T01:54:59;4.60;;;2.10;;
22034;SDS011;11181;51.002;4.356;2024-02-16T01:57:28;2.53;;;1.90;;
22034;SDS011;11181;51.002;4.356;2024-02-16T01:59:55;8.53;;;2.17;;
22034;SDS011;11181;51.002;4.356;2024-02-16T02:02:23;3.37;;;2.00;;
22034;SDS011;11181;51.002;4.356;2024-02-16T02:04:50;3.57;;;1.90;;
22034;SDS011;11181;51.002;4.356;2024-02-16T02:07:17;3.80;;;2.17;;
22034;SDS011;11181;51.002;4.356;2024-02-16T02:09:43;2.83;;;1.90;;
22034;SDS011;11181;51.002;4.356;2024-02-16T02:12:10;3.67;;;1.80;;
22034;SDS011;11181;51.002;4.356;2024-02-16T02:14:37;3.37;;;2.40;;
22034;SDS011;11181;51.002;4.356;2024-02-16T02:17:04;3.47;;;2.10;;
22034;SDS011;11181;51.002;4.356;2024-02-16T02:19:33;3.73;;;1.67;;
22034;SDS011;11181;51.002;4.356;2024-02-16T02:22:00;2.70;;;1.87;;
22034;SDS011;11181;51.002;4.356;2024-02-16T02:24:28;3.33;;;1.97;;
22034;SDS011;11181;51.002;4.356;2024-02-16T02:26:55;4.23;;;1.80;;
22034;SDS011;11181;51.002;4.356;2024-02-16T02:29:22;5.27;;;2.20;;
22034;SDS011;11181;51.002;4.356;2024-02-16T02:31:49;3.30;;;2.00;;
22034;SDS011;11181;51.002;4.356;2024-02-16T02:34:16;2.77;;;1.90;;
22034;SDS011;11181;51.002;4.356;2024-02-16T02:36:43;3.83;;;1.90;;
22034;SDS011;11181;51.002;4.356;2024-02-16T02:39:10;3.67;;;1.93;;
22034;SDS011;11181;51.002;4.356;2024-02-16T02:41:39;3.10;;;1.90;;
22034;SDS011;11181;51.002;4.356;2024-02-16T02:44:06;7.63;;;2.30;;
22034;SDS011;11181;51.002;4.356;2024-02-16T02:46:34;2.80;;;1.83;;
22034;SDS011;11181;51.002;4.356;2024-02-16T02:49:02;3.20;;;1.90;;
22034;SDS011;11181;51.002;4.356;2024-02-16T02:51:29;2.67;;;1.73;;
22034;SDS011;11181;51.002;4.356;2024-02-16T02:53:56;3.67;;;2.63;;
22034;SDS011;11181;51.002;4.356;2024-02-16T02:56:23;4.93;;;1.63;;
22034;SDS011;11181;51.002;4.356;2024-02-16T02:58:51;2.90;;;2.30;;
22034;SDS011;11181;51.002;4.356;2024-02-16T03:01:18;3.47;;;2.10;;
22034;SDS011;11181;51.002;4.356;2024-02-16T03:03:47;3.27;;;1.63;;
22034;SDS011;11181;51.002;4.356;2024-02-16T03:06:17;2.90;;;1.80;;
22034;SDS011;11181;51.002;4.356;2024-02-16T03:08:44;3.00;;;1.97;;
22034;SDS011;11181;51.002;4.356;2024-02-16T03:11:10;6.20;;;3.20;;
22034;SDS011;11181;51.002;4.356;2024-02-16T03:13:37;3.47;;;2.07;;
22034;SDS011;11181;51.002;4.356;2024-02-16T03:16:06;2.53;;;2.03;;
22034;SDS011;11181;51.002;4.356;2024-02-16T03:18:33;5.03;;;2.30;;
22034;SDS011;11181;51.002;4.356;2024-02-16T03:21:00;4.90;;;2.10;;
22034;SDS011;11181;51.002;4.356;2024-02-16T03:23:27;2.70;;;1.90;;
22034;SDS011;11181;51.002;4.356;2024-02-16T03:25:54;2.83;;;1.80;;
22034;SDS011;11181;51.002;4.356;2024-02-16T03:28:21;3.50;;;2.13;;
22034;SDS011;11181;51.002;4.356;2024-02-16T03:30:48;2.37;;;1.80;;
22034;SDS011;11181;51.002;4.356;2024-02-16T03:33:16;3.67;;;2.03;;
22034;SDS011;11181;51.002;4.356;2024-02-16T03:35:43;4.07;;;2.33;;
22034;SDS011;11181;51.002;4.356;2024-02-16T03:38:10;3.57;;;2.27;;
22034;SDS011;11181;51.002;4.356;2024-02-16T03:40:38;2.67;;;2.03;;
22034;SDS011;11181;51.002;4.356;2024-02-16T03:43:05;4.77;;;2.07;;
22034;SDS011;11181;51.002;4.356;2024-02-16T03:45:31;3.03;;;2.00;;
22034;SDS011;11181;51.002;4.356;2024-02-16T03:47:58;3.93;;;2.03;;
22034;SDS011;11181;51.002;4.356;2024-02-16T03:50:27;5.90;;;2.63;;
22034;SDS011;11181;51.002;4.356;2024-02-16T03:52:53;3.93;;;2.17;;
22034;SDS011;11181;51.002;4.356;2024-02-16T03:55:20;3.83;;;2.70;;
22034;SDS011;11181;51.002;4.356;2024-02-16T03:57:47;4.80;;;1.73;;
22034;SDS011;11181;51.002;4.356;2024-02-16T04:00:14;3.50;;;2.13;;
22034;SDS011;11181;51.002;4.356;2024-02-16T04:02:50;3.23;;;1.87;;
22034;SDS011;11181;51.002;4.356;2024-02-16T04:05:17;4.50;;;2.40;;
22034;SDS011;11181;51.002;4.356;2024-02-16T04:07:45;5.20;;;2.37;;
22034;SDS011;11181;51.002;4.356;2024-02-16T04:10:12;3.97;;;2.40;;
22034;SDS011;11181;51.002;4.356;2024-02-16T04:12:39;4.50;;;2.37;;
22034;SDS011;11181;51.002;4.356;2024-02-16T04:15:06;3.27;;;2.43;;
22034;SDS011;11181;51.002;4.356;2024-02-16T04:17:33;5.10;;;2.20;;
22034;SDS011;11181;51.002;4.356;2024-02-16T04:20:00;4.03;;;2.27;;
22034;SDS011;11181;51.002;4.356;2024-02-16T04:22:27;3.57;;;2.30;;
22034;SDS011;11181;51.002;4.356;2024-02-16T04:24:57;6.70;;;2.43;;
22034;SDS011;11181;51.002;4.356;2024-02-16T04:27:24;3.53;;;2.30;;
22034;SDS011;11181;51.002;4.356;2024-02-16T04:29:51;4.57;;;2.53;;
22034;SDS011;11181;51.002;4.356;2024-02-16T04:32:18;3.53;;;1.80;;
22034;SDS011;11181;51.002;4.356;2024-02-16T04:34:44;5.70;;;2.27;;
22034;SDS011;11181;51.002;4.356;2024-02-16T04:37:12;4.00;;;1.90;;
22034;SDS011;11181;51.002;4.356;2024-02-16T04:39:39;4.33;;;2.20;;
22034;SDS011;11181;51.002;4.356;2024-02-16T04:42:07;9.37;;;2.70;;
22034;SDS011;11181;51.002;4.356;2024-02-16T04:44:36;6.27;;;2.93;;
22034;SDS011;11181;51.002;4.356;2024-02-16T04:47:04;4.67;;;2.70;;
22034;SDS011;11181;51.002;4.356;2024-02-16T04:49:31;3.70;;;2.43;;
22034;SDS011;11181;51.002;4.356;2024-02-16T04:51:58;3.00;;;2.20;;
22034;SDS011;11181;51.002;4.356;2024-02-16T04:54:25;4.57;;;2.27;;
22034;SDS011;11181;51.002;4.356;2024-02-16T04:56:51;6.80;;;2.50;;
22034;SDS011;11181;51.002;4.356;2024-02-16T04:59:20;6.50;;;2.77;;
22034;SDS011;11181;51.002;4.356;2024-02-16T05:01:46;5.20;;;2.97;;
22034;SDS011;11181;51.002;4.356;2024-02-16T05:04:13;7.03;;;2.93;;
22034;SDS011;11181;51.002;4.356;2024-02-16T05:06:42;7.07;;;2.50;;
22034;SDS011;11181;51.002;4.356;2024-02-16T05:09:10;5.80;;;2.87;;
22034;SDS011;11181;51.002;4.356;2024-02-16T05:11:39;5.43;;;2.97;;
22034;SDS011;11181;51.002;4.356;2024-02-16T05:14:06;6.17;;;2.43;;
22034;SDS011;11181;51.002;4.356;2024-02-16T05:16:34;5.63;;;2.83;;
22034;SDS011;11181;51.002;4.356;2024-02-16T05:19:01;5.47;;;3.03;;
22034;SDS011;11181;51.002;4.356;2024-02-16T05:21:28;4.30;;;3.07;;
22034;SDS011;11181;51.002;4.356;2024-02-16T05:23:55;7.10;;;2.70;;
22034;SDS011;11181;51.002;4.356;2024-02-16T05:26:22;6.87;;;3.27;;
22034;SDS011;11181;51.002;4.356;2024-02-16T05:28:49;6.33;;;3.47;;
22034;SDS011;11181;51.002;4.356;2024-02-16T05:31:16;9.27;;;3.83;;
22034;SDS011;11181;51.002;4.356;2024-02-16T05:33:45;4.33;;;2.80;;
22034;SDS011;11181;51.002;4.356;2024-02-16T05:36:15;7.33;;;3.20;;
22034;SDS011;11181;51.002;4.356;2024-02-16T05:38:43;8.00;;;3.60;;
22034;SDS011;11181;51.002;4.356;2024-02-16T05:41:10;6.00;;;3.30;;
22034;SDS011;11181;51.002;4.356;2024-02-16T05:43:37;6.20;;;3.50;;
22034;SDS011;11181;51.002;4.356;2024-02-16T05:46:04;6.23;;;3.73;;
22034;SDS011;11181;51.002;4.356;2024-02-16T05:48:31;7.60;;;3.53;;
22034;SDS011;11181;51.002;4.356;2024-02-16T05:51:01;6.37;;;3.50;;
22034;SDS011;11181;51.002;4.356;2024-02-16T05:53:28;6.33;;;3.80;;
22034;SDS011;11181;51.002;4.356;2024-02-16T05:55:55;8.33;;;4.17;;
22034;SDS011;11181;51.002;4.356;2024-02-16T05:58:22;6.93;;;3.90;;
22034;SDS011;11181;51.002;4.356;2024-02-16T06:00:49;5.93;;;3.30;;
22034;SDS011;11181;51.002;4.356;2024-02-16T06:03:16;7.03;;;3.27;;
22034;SDS011;11181;51.002;4.356;2024-02-16T06:05:43;6.53;;;3.60;;
22034;SDS011;11181;51.002;4.356;2024-02-16T06:08:12;7.63;;;3.73;;
22034;SDS011;11181;51.002;4.356;2024-02-16T06:10:40;7.13;;;3.80;;
22034;SDS011;11181;51.002;4.356;2024-02-16T06:13:07;7.87;;;3.87;;
22034;SDS011;11181;51.002;4.356;2024-02-16T06:15:34;9.50;;;4.23;;
22034;SDS011;11181;51.002;4.356;2024-02-16T06:18:02;6.33;;;3.57;;
22034;SDS011;11181;51.002;4.356;2024-02-16T06:20:29;7.07;;;3.37;;
22034;SDS011;11181;51.002;4.356;2024-02-16T06:22:56;7.47;;;3.83;;
22034;SDS011;11181;51.002;4.356;2024-02-16T06:25:24;6.10;;;3.30;;
22034;SDS011;11181;51.002;4.356;2024-02-16T06:27:51;7.10;;;3.53;;
22034;SDS011;11181;51.002;4.356;2024-02-16T06:30:18;10.23;;;3.17;;
22034;SDS011;11181;51.002;4.356;2024-02-16T06:32:45;6.77;;;3.77;;
22034;SDS011;11181;51.002;4.356;2024-02-16T06:35:12;6.13;;;3.57;;
22034;SDS011;11181;51.002;4.356;2024-02-16T06:37:39;8.30;;;3.40;;
22034;SDS011;11181;51.002;4.356;2024-02-16T06:40:06;6.90;;;3.50;;
22034;SDS011;11181;51.002;4.356;2024-02-16T06:42:37;9.33;;;3.63;;
22034;SDS011;11181;51.002;4.356;2024-02-16T06:45:04;5.27;;;3.00;;
22034;SDS011;11181;51.002;4.356;2024-02-16T06:47:32;8.90;;;3.57;;
22034;SDS011;11181;51.002;4.356;2024-02-16T06:49:59;6.17;;;3.23;;
22034;SDS011;11181;51.002;4.356;2024-02-16T06:52:26;6.23;;;3.07;;
22034;SDS011;11181;51.002;4.356;2024-02-16T06:54:53;4.03;;;3.27;;
22034;SDS011;11181;51.002;4.356;2024-02-16T06:57:20;5.47;;;2.70;;
22034;SDS011;11181;51.002;4.356;2024-02-16T06:59:49;6.13;;;3.47;;
22034;SDS011;11181;51.002;4.356;2024-02-16T07:02:18;7.60;;;2.93;;
22034;SDS011;11181;51.002;4.356;2024-02-16T07:04:45;7.50;;;3.50;;
22034;SDS011;11181;51.002;4.356;2024-02-16T07:07:13;5.60;;;2.70;;
22034;SDS011;11181;51.002;4.356;2024-02-16T07:09:40;7.47;;;3.17;;
22034;SDS011;11181;51.002;4.356;2024-02-16T07:12:07;4.67;;;3.03;;
22034;SDS011;11181;51.002;4.356;2024-02-16T07:14:34;5.93;;;2.80;;
22034;SDS011;11181;51.002;4.356;2024-02-16T07:17:03;7.07;;;3.70;;
22034;SDS011;11181;51.002;4.356;2024-02-16T07:19:34;4.70;;;2.70;;
22034;SDS011;11181;51.002;4.356;2024-02-16T07:22:01;5.03;;;2.77;;
22034;SDS011;11181;51.002;4.356;2024-02-16T07:24:28;7.70;;;2.80;;
22034;SDS011;11181;51.002;4.356;2024-02-16T07:26:55;4.17;;;2.93;;
22034;SDS011;11181;51.002;4.356;2024-02-16T07:29:23;2.83;;;2.33;;
22034;SDS011;11181;51.002;4.356;2024-02-16T07:31:50;6.40;;;3.07;;
22034;SDS011;11181;51.002;4.356;2024-02-16T07:34:19;7.00;;;2.93;;
22034;SDS011;11181;51.002;4.356;2024-02-16T07:36:46;5.33;;;2.70;;
22034;SDS011;11181;51.002;4.356;2024-02-16T07:39:12;4.23;;;3.27;;
22034;SDS011;11181;51.002;4.356;2024-02-16T07:41:39;4.87;;;2.80;;
22034;SDS011;11181;51.002;4.356;2024-02-16T07:44:06;4.77;;;3.17;;
22034;SDS011;11181;51.002;4.356;2024-02-16T07:46:39;5.80;;;3.30;;
22034;SDS011;11181;51.002;4.356;2024-02-16T07:49:06;5.77;;;2.70;;
22034;SDS011;11181;51.002;4.356;2024-02-16T07:51:37;6.30;;;3.20;;
22034;SDS011;11181;51.002;4.356;2024-02-16T07:54:04;5.70;;;3.10;;
22034;SDS011;11181;51.002;4.356;2024-02-16T07:56:33;4.20;;;2.90;;
22034;SDS011;11181;51.002;4.356;2024-02-16T07:59:00;7.53;;;3.03;;
22034;SDS011;11181;51.002;4.356;2024-02-16T08:01:27;5.67;;;2.80;;
22034;SDS011;11181;51.002;4.356;2024-02-16T08:03:54;5.03;;;2.80;;
22034;SDS011;11181;51.002;4.356;2024-02-16T08:06:24;5.93;;;2.83;;
22034;SDS011;11181;51.002;4.356;2024-02-16T08:08:53;6.83;;;2.70;;
22034;SDS011;11181;51.002;4.356;2024-02-16T08:11:20;5.93;;;3.00;;
22034;SDS011;11181;51.002;4.356;2024-02-16T08:13:48;5.67;;;2.80;;
22034;SDS011;11181;51.002;4.356;2024-02-16T08:16:15;5.77;;;2.90;;
22034;SDS011;11181;51.002;4.356;2024-02-16T08:18:43;6.63;;;2.97;;
22034;SDS011;11181;51.002;4.356;2024-02-16T08:21:10;7.80;;;3.73;;
22034;SDS011;11181;51.002;4.356;2024-02-16T08:23:37;7.30;;;2.57;;
22034;SDS011;11181;51.002;4.356;2024-02-16T08:26:05;7.00;;;3.50;;
22034;SDS011;11181;51.002;4.356;2024-02-16T08:28:32;5.13;;;2.63;;
22034;SDS011;11181;51.002;4.356;2024-02-16T08:30:59;5.03;;;3.17;;
22034;SDS011;11181;51.002;4.356;2024-02-16T08:33:26;10.07;;;3.90;;
22034;SDS011;11181;51.002;4.356;2024-02-16T08:35:53;4.53;;;3.00;;
22034;SDS011;11181;51.002;4.356;2024-02-16T08:38:20;6.00;;;3.80;;
22034;SDS011;11181;51.002;4.356;2024-02-16T08:40:47;11.23;;;4.00;;
22034;SDS011;11181;51.002;4.356;2024-02-16T08:43:18;5.50;;;3.13;;
22034;SDS011;11181;51.002;4.356;2024-02-16T08:45:45;10.67;;;3.70;;
22034;SDS011;11181;51.002;4.356;2024-02-16T08:48:13;7.10;;;3.17;;
22034;SDS011;11181;51.002;4.356;2024-02-16T08:50:40;5.23;;;3.10;;
22034;SDS011;11181;51.002;4.356;2024-02-16T08:53:07;5.90;;;3.23;;
22034;SDS011;11181;51.002;4.356;2024-02-16T08:55:35;6.77;;;3.07;;
22034;SDS011;11181;51.002;4.356;2024-02-16T08:58:02;5.43;;;2.93;;
22034;SDS011;11181;51.002;4.356;2024-02-16T09:00:30;3.43;;;3.00;;
22034;SDS011;11181;51.002;4.356;2024-02-16T09:02:57;7.80;;;3.10;;
22034;SDS011;11181;51.002;4.356;2024-02-16T09:05:27;6.20;;;3.30;;
22034;SDS011;11181;51.002;4.356;2024-02-16T09:07:54;6.90;;;3.10;;
22034;SDS011;11181;51.002;4.356;2024-02-16T09:10:22;3.90;;;3.47;;
22034;SDS011;11181;51.002;4.356;2024-02-16T09:12:49;4.03;;;2.70;;
22034;SDS011;11181;51.002;4.356;2024-02-16T09:15:17;9.27;;;3.07;;
22034;SDS011;11181;51.002;4.356;2024-02-16T09:17:45;6.53;;;3.03;;
22034;SDS011;11181;51.002;4.356;2024-02-16T09:20:12;8.53;;;3.83;;
22034;SDS011;11181;51.002;4.356;2024-02-16T09:22:40;7.47;;;3.37;;
22034;SDS011;11181;51.002;4.356;2024-02-16T09:25:07;8.03;;;3.23;;
22034;SDS011;11181;51.002;4.356;2024-02-16T09:27:34;8.10;;;3.57;;
22034;SDS011;11181;51.002;4.356;2024-02-16T09:30:05;5.97;;;3.47;;
22034;SDS011;11181;51.002;4.356;2024-02-16T09:32:35;8.87;;;3.30;;
22034;SDS011;11181;51.002;4.356;2024-02-16T09:35:04;7.13;;;3.33;;
22034;SDS011;11181;51.002;4.356;2024-02-16T09:37:31;3.97;;;3.10;;
22034;SDS011;11181;51.002;4.356;2024-02-16T09:39:58;8.80;;;3.63;;
22034;SDS011;11181;51.002;4.356;2024-02-16T09:42:25;5.37;;;3.43;;
22034;SDS011;11181;51.002;4.356;2024-02-16T09:44:52;5.33;;;3.40;;
22034;SDS011;11181;51.002;4.356;2024-02-16T09:47:21;5.67;;;3.40;;
22034;SDS011;11181;51.002;4.356;2024-02-16T09:49:51;6.70;;;3.70;;
22034;SDS011;11181;51.002;4.356;2024-02-16T09:52:19;5.20;;;3.30;;
22034;SDS011;11181;51.002;4.356;2024-02-16T09:54:46;6.90;;;4.13;;
22034;SDS011;11181;51.002;4.356;2024-02-16T09:57:16;16.23;;;4.87;;
22034;SDS011;11181;51.002;4.356;2024-02-16T09:59:43;5.37;;;3.37;;
22034;SDS011;11181;51.002;4.356;2024-02-16T10:02:10;8.03;;;3.90;;
22034;SDS011;11181;51.002;4.356;2024-02-16T10:04:37;7.40;;;4.20;;
22034;SDS011;11181;51.002;4.356;2024-02-16T10:07:04;6.40;;;5.00;;
22034;SDS011;11181;51.002;4.356;2024-02-16T10:09:33;9.77;;;4.57;;
22034;SDS011;11181;51.002;4.356;2024-02-16T10:12:00;7.10;;;4.70;;
22034;SDS011;11181;51.002;4.356;2024-02-16T10:14:27;9.23;;;4.33;;
22034;SDS011;11181;51.002;4.356;2024-02-16T10:17:00;10.57;;;4.23;;
22034;SDS011;11181;51.002;4.356;2024-02-16T10:19:28;6.93;;;4.30;;
22034;SDS011;11181;51.002;4.356;2024-02-16T10:22:06;5.90;;;3.60;;
22034;SDS011;11181;51.002;4.356;2024-02-16T10:24:35;8.73;;;4.43;;
22034;SDS011;11181;51.002;4.356;2024-02-16T10:27:03;12.60;;;5.03;;
22034;SDS011;11181;51.002;4.356;2024-02-16T10:29:31;9.33;;;4.60;;
22034;SDS011;11181;51.002;4.356;2024-02-16T10:32:00;9.40;;;4.60;;
22034;SDS011;11181;51.002;4.356;2024-02-16T10:34:27;8.13;;;4.10;;
22034;SDS011;11181;51.002;4.356;2024-02-16T10:36:55;10.47;;;4.63;;
22034;SDS011;11181;51.002;4.356;2024-02-16T10:39:25;8.07;;;4.73;;
22034;SDS011;11181;51.002;4.356;2024-02-16T10:41:53;10.60;;;4.23;;
22034;SDS011;11181;51.002;4.356;2024-02-16T10:44:23;8.13;;;4.23;;
22034;SDS011;11181;51.002;4.356;2024-02-16T10:46:50;9.50;;;5.40;;
22034;SDS011;11181;51.002;4.356;2024-02-16T10:49:18;9.70;;;4.73;;
22034;SDS011;11181;51.002;4.356;2024-02-16T10:51:46;12.90;;;4.80;;
22034;SDS011;11181;51.002;4.356;2024-02-16T10:54:17;11.10;;;4.93;;
22034;SDS011;11181;51.002;4.356;2024-02-16T10:56:48;9.87;;;5.00;;
22034;SDS011;11181;51.002;4.356;2024-02-16T10:59:17;8.07;;;4.70;;
22034;SDS011;11181;51.002;4.356;2024-02-16T11:01:44;10.93;;;4.90;;
22034;SDS011;11181;51.002;4.356;2024-02-16T11:04:11;7.47;;;4.33;;
22034;SDS011;11181;51.002;4.356;2024-02-16T11:06:46;13.43;;;5.60;;
22034;SDS011;11181;51.002;4.356;2024-02-16T11:09:25;11.70;;;5.43;;
22034;SDS011;11181;51.002;4.356;2024-02-16T11:11:53;10.50;;;5.17;;
22034;SDS011;11181;51.002;4.356;2024-02-16T11:14:22;9.93;;;5.47;;
22034;SDS011;11181;51.002;4.356;2024-02-16T11:16:53;14.23;;;6.40;;
22034;SDS011;11181;51.002;4.356;2024-02-16T11:19:21;8.93;;;5.20;;
22034;SDS011;11181;51.002;4.356;2024-02-16T11:21:55;8.57;;;5.67;;
22034;SDS011;11181;51.002;4.356;2024-02-16T11:24:29;9.67;;;5.80;;
22034;SDS011;11181;51.002;4.356;2024-02-16T11:26:57;8.67;;;5.73;;
22034;SDS011;11181;51.002;4.356;2024-02-16T11:29:27;13.67;;;7.17;;
22034;SDS011;11181;51.002;4.356;2024-02-16T11:31:58;8.73;;;6.10;;
22034;SDS011;11181;51.002;4.356;2024-02-16T11:34:26;9.77;;;6.27;;
22034;SDS011;11181;51.002;4.356;2024-02-16T11:36:52;13.03;;;6.80;;
22034;SDS011;11181;51.002;4.356;2024-02-16T11:39:20;15.60;;;6.23;;
22034;SDS011;11181;51.002;4.356;2024-02-16T11:41:48;10.83;;;7.23;;
22034;SDS011;11181;51.002;4.356;2024-02-16T11:44:25;8.83;;;6.33;;
22034;SDS011;11181;51.002;4.356;2024-02-16T11:46:54;11.47;;;6.47;;
22034;SDS011;11181;51.002;4.356;2024-02-16T11:49:21;8.67;;;6.73;;
22034;SDS011;11181;51.002;4.356;2024-02-16T11:51:48;7.13;;;6.17;;
22034;SDS011;11181;51.002;4.356;2024-02-16T11:54:15;8.07;;;6.33;;
22034;SDS011;11181;51.002;4.356;2024-02-16T11:56:42;7.20;;;5.93;;
22034;SDS011;11181;51.002;4.356;2024-02-16T11:59:11;8.87;;;6.90;;
22034;SDS011;11181;51.002;4.356;2024-02-16T12:01:47;7.23;;;6.53;;
22034;SDS011;11181;51.002;4.356;2024-02-16T12:04:20;10.73;;;7.13;;
22034;SDS011;11181;51.002;4.356;2024-02-16T12:06:50;9.17;;;6.80;;
22034;SDS011;11181;51.002;4.356;2024-02-16T12:09:18;8.67;;;6.73;;
22034;SDS011;11181;51.002;4.356;2024-02-16T12:11:46;10.17;;;7.10;;
22034;SDS011;11181;51.002;4.356;2024-02-16T12:14:14;8.93;;;6.67;;
22034;SDS011;11181;51.002;4.356;2024-02-16T12:16:41;9.63;;;7.23;;
22034;SDS011;11181;51.002;4.356;2024-02-16T12:19:08;8.77;;;7.00;;
22034;SDS011;11181;51.002;4.356;2024-02-16T12:21:39;8.43;;;7.17;;
22034;SDS011;11181;51.002;4.356;2024-02-16T12:24:06;11.40;;;7.87;;
22034;SDS011;11181;51.002;4.356;2024-02-16T12:26:33;8.57;;;6.90;;
22034;SDS011;11181;51.002;4.356;2024-02-16T12:29:00;9.23;;;7.10;;
22034;SDS011;11181;51.002;4.356;2024-02-16T12:31:27;7.87;;;6.97;;
22034;SDS011;11181;51.002;4.356;2024-02-16T12:33:56;9.97;;;8.07;;
22034;SDS011;11181;51.002;4.356;2024-02-16T12:36:23;10.93;;;7.60;;
22034;SDS011;11181;51.002;4.356;2024-02-16T12:38:52;10.03;;;7.93;;
22034;SDS011;11181;51.002;4.356;2024-02-16T12:41:20;12.37;;;8.50;;
22034;SDS011;11181;51.002;4.356;2024-02-16T12:43:47;8.67;;;7.37;;
22034;SDS011;11181;51.002;4.356;2024-02-16T12:46:14;9.40;;;8.17;;
22034;SDS011;11181;51.002;4.356;2024-02-16T12:48:41;9.03;;;7.77;;
22034;SDS011;11181;51.002;4.356;2024-02-16T12:51:08;12.63;;;7.87;;
22034;SDS011;11181;51.002;4.356;2024-02-16T12:53:36;9.40;;;7.07;;
22034;SDS011;11181;51.002;4.356;2024-02-16T12:56:07;8.93;;;7.17;;
22034;SDS011;11181;51.002;4.356;2024-02-16T12:58:34;11.40;;;8.13;;
22034;SDS011;11181;51.002;4.356;2024-02-16T13:01:01;12.80;;;10.43;;
22034;SDS011;11181;51.002;4.356;2024-02-16T13:03:31;13.63;;;10.63;;
22034;SDS011;11181;51.002;4.356;2024-02-16T13:05:59;15.60;;;11.53;;
22034;SDS011;11181;51.002;4.356;2024-02-16T13:08:27;12.63;;;10.30;;
22034;SDS011;11181;51.002;4.356;2024-02-16T13:10:54;13.80;;;11.00;;
22034;SDS011;11181;51.002;4.356;2024-02-16T13:13:23;14.33;;;10.80;;
22034;SDS011;11181;51.002;4.356;2024-02-16T13:15:50;12.83;;;11.53;;
22034;SDS011;11181;51.002;4.356;2024-02-16T13:18:17;13.87;;;10.47;;
22034;SDS011;11181;51.002;4.356;2024-02-16T13:20:44;10.83;;;9.60;;
22034;SDS011;11181;51.002;4.356;2024-02-16T13:23:12;10.67;;;9.13;;
22034;SDS011;11181;51.002;4.356;2024-02-16T13:25:39;10.37;;;9.10;;
22034;SDS011;11181;51.002;4.356;2024-02-16T13:28:06;12.80;;;9.07;;
22034;SDS011;11181;51.002;4.356;2024-02-16T13:30:34;9.13;;;8.27;;
22034;SDS011;11181;51.002;4.356;2024-02-16T13:33:02;9.83;;;8.60;;
22034;SDS011;11181;51.002;4.356;2024-02-16T13:35:29;10.53;;;9.53;;
22034;SDS011;11181;51.002;4.356;2024-02-16T13:37:56;9.33;;;7.40;;
22034;SDS011;11181;51.002;4.356;2024-02-16T13:40:23;10.80;;;6.90;;
22034;SDS011;11181;51.002;4.356;2024-02-16T13:42:50;7.20;;;6.07;;
22034;SDS011;11181;51.002;4.356;2024-02-16T13:45:20;7.73;;;6.73;;
22034;SDS011;11181;51.002;4.356;2024-02-16T13:47:51;7.13;;;6.27;;
22034;SDS011;11181;51.002;4.356;2024-02-16T13:50:18;6.40;;;5.50;;
22034;SDS011;11181;51.002;4.356;2024-02-16T13:52:45;7.70;;;5.40;;
22034;SDS011;11181;51.002;4.356;2024-02-16T13:55:12;5.63;;;4.47;;
22034;SDS011;11181;51.002;4.356;2024-02-16T13:57:39;4.77;;;4.23;;
22034;SDS011;11181;51.002;4.356;2024-02-16T14:00:06;5.60;;;4.50;;
22034;SDS011;11181;51.002;4.356;2024-02-16T14:02:34;5.73;;;5.13;;
22034;SDS011;11181;51.002;4.356;2024-02-16T14:05:02;6.10;;;5.53;;
22034;SDS011;11181;51.002;4.356;2024-02-16T14:07:30;8.47;;;7.50;;
22034;SDS011;11181;51.002;4.356;2024-02-16T14:09:58;10.00;;;8.73;;
22034;SDS011;11181;51.002;4.356;2024-02-16T14:12:25;13.67;;;10.47;;
22034;SDS011;11181;51.002;4.356;2024-02-16T14:14:51;15.07;;;11.90;;
22034;SDS011;11181;51.002;4.356;2024-02-16T14:17:18;15.83;;;13.27;;
22034;SDS011;11181;51.002;4.356;2024-02-16T14:19:45;19.70;;;15.97;;
22034;SDS011;11181;51.002;4.356;2024-02-16T14:22:14;19.87;;;15.67;;
22034;SDS011;11181;51.002;4.356;2024-02-16T14:24:40;20.23;;;15.37;;
22034;SDS011;11181;51.002;4.356;2024-02-16T14:27:07;15.30;;;13.70;;
22034;SDS011;11181;51.002;4.356;2024-02-16T14:29:34;15.87;;;13.37;;
22034;SDS011;11181;51.002;4.356;2024-02-16T14:32:01;15.40;;;12.73;;
22034;SDS011;11181;51.002;4.356;2024-02-16T14:34:28;11.70;;;9.87;;
22034;SDS011;11181;51.002;4.356;2024-02-16T14:36:56;11.10;;;9.90;;
22034;SDS011;11181;51.002;4.356;2024-02-16T14:39:24;11.77;;;9.97;;
22034;SDS011;11181;51.002;4.356;2024-02-16T14:41:51;13.07;;;10.07;;
22034;SDS011;11181;51.002;4.356;2024-02-16T14:44:18;9.30;;;8.30;;
22034;SDS011;11181;51.002;4.356;2024-02-16T14:46:45;10.97;;;8.83;;
22034;SDS011;11181;51.002;4.356;2024-02-16T14:49:12;12.10;;;8.33;;